Platitera Tonouranon — SX7180 — position and weather

sailwx.info

Track history (hours):
 
Tides and Currents Weather Stations Pressure Air Temp Water Temp Dewpoint Dewpoint Depression Visibility Wind Speed Wind Dir Waves Ship Positions

Platitera Tonouranon

Last reported at 2014-Aug-28 13:15 UTC. Time now 2014-Aug-28 15:26 UTC.
Position N 37°45' E 023°26'.

Length 55 m; draft 3.8 m.

Type: Ship (hazmat cat A). MMSI: 237038200.

Date/timePositionNaut miles runAvg speedWind from/ knotsBaromVisibWave heightAir tempDewpointWater temp
2014-Aug-28 13:15N 37°45' E 023°26'710.0
2014-Aug-28 12:30N 37°37' E 023°26'16 5.3
2014-Aug-28 09:31N 37°21' E 023°28'9 4.0
2014-Aug-28 07:17N 37°29' E 023°33'912.3
2014-Aug-28 06:33N 37°38' E 023°35'1212.0
2014-Aug-28 05:33N 37°50' E 023°39'5 0.4
2014-Aug-27 16:33N 37°55' E 023°40'1212.0
2014-Aug-27 15:33N 37°47' E 023°28'3 2.9
2014-Aug-27 14:24N 37°45' E 023°26'0 0.0
2014-Aug-27 13:16N 37°45' E 023°26'7 8.9
2014-Aug-27 12:30N 37°38' E 023°26'11 5.8
2014-Aug-27 10:32N 37°27' E 023°31'13 3.2
2014-Aug-27 06:32N 37°39' E 023°36'1211.9
2014-Aug-27 05:33N 37°51' E 023°39'6 5.6
2014-Aug-27 04:33N 37°56' E 023°41'3 0.3
2014-Aug-26 16:33N 37°54' E 023°39'1211.6
2014-Aug-26 15:33N 37°47' E 023°27'2 2.0
2014-Aug-26 14:25N 37°45' E 023°26'0 0.0
2014-Aug-26 13:31N 37°45' E 023°26'8 7.2
2014-Aug-26 12:27N 37°37' E 023°26'9 1.5
2014-Aug-26 06:33N 37°40' E 023°37'1211.9
2014-Aug-26 05:33N 37°51' E 023°39'5 5.0
2014-Aug-26 04:33N 37°56' E 023°41'2 0.2
2014-Aug-25 16:33N 37°54' E 023°39'1211.9
2014-Aug-25 15:33N 37°47' E 023°28'3 1.2
2014-Aug-25 13:14N 37°45' E 023°26'12 2.1
2014-Aug-25 07:21N 37°34' E 023°31'1012.0
2014-Aug-25 06:33N 37°43' E 023°32'1211.6
2014-Aug-25 05:33N 37°53' E 023°40'2 0.2
2014-Aug-24 16:33N 37°55' E 023°38'1212.0
2014-Aug-24 15:33N 37°47' E 023°27'2 2.0
2014-Aug-24 14:28N 37°45' E 023°26'0 0.0
2014-Aug-24 13:32N 37°45' E 023°26'9 7.7
2014-Aug-24 12:23N 37°36' E 023°26'11 5.7
2014-Aug-24 10:23N 37°25' E 023°32'3 1.0
2014-Aug-24 07:33N 37°28' E 023°32'1312.1
2014-Aug-24 06:31N 37°41' E 023°34'1111.9
2014-Aug-24 05:33N 37°52' E 023°37'6 5.6
2014-Aug-24 04:33N 37°56' E 023°41'3 0.1
2014-Aug-22 16:33N 37°54' E 023°39'1211.6
2014-Aug-22 15:33N 37°47' E 023°27'2 1.8
2014-Aug-22 14:17N 37°45' E 023°26'0 0.0
2014-Aug-22 13:21N 37°45' E 023°26'7 8.5
2014-Aug-22 12:33N 37°38' E 023°26'12 6.1
2014-Aug-22 10:33N 37°27' E 023°32'2 0.7
2014-Aug-22 07:33N 37°29' E 023°32'1311.9
2014-Aug-22 06:30N 37°41' E 023°34'1111.5
2014-Aug-22 05:33N 37°51' E 023°39'5 5.0
2014-Aug-22 04:33N 37°56' E 023°41'3 0.2
2014-Aug-21 16:33N 37°54' E 023°39'1211.7
2014-Aug-21 15:33N 37°47' E 023°27'2 2.3
2014-Aug-21 14:30N 37°45' E 023°26'0 0.0
2014-Aug-21 13:33N 37°45' E 023°26'7 6.4
2014-Aug-21 12:32N 37°38' E 023°26'11 5.3
2014-Aug-21 10:33N 37°28' E 023°31'7 7.3
2014-Aug-21 09:32N 37°21' E 023°28'22 6.9
2014-Aug-21 06:20N 37°42' E 023°35'911.8
2014-Aug-21 05:33N 37°51' E 023°37'6 5.7
2014-Aug-21 04:33N 37°56' E 023°41'0 0.0
2014-Aug-20 17:05N 37°56' E 023°41'4 7.0
2014-Aug-20 16:33N 37°53' E 023°38'1211.6
2014-Aug-20 15:33N 37°47' E 023°26'2 0.8
2014-Aug-20 13:12N 37°45' E 023°25'7 9.8
2014-Aug-20 12:32N 37°38' E 023°26'13 6.2
2014-Aug-20 10:24N 37°26' E 023°32'16 4.0
2014-Aug-20 06:28N 37°41' E 023°35'1111.7
2014-Aug-20 05:33N 37°52' E 023°37'1 0.1
2014-Aug-19 16:33N 37°53' E 023°37'9 0.8
2014-Aug-19 06:26N 37°44' E 023°36'1011.7
2014-Aug-19 05:33N 37°54' E 023°40'2 2.0
2014-Aug-19 04:33N 37°56' E 023°41'0 0.0
2014-Aug-18 17:03N 37°56' E 023°41'3 6.0
2014-Aug-18 16:33N 37°55' E 023°38'1211.8
2014-Aug-18 15:33N 37°47' E 023°27'2 1.7
2014-Aug-18 14:08N 37°45' E 023°26'0 0.0
2014-Aug-18 13:28N 37°45' E 023°26'  
Track history (hours):
 
Tides and Currents Weather Stations Pressure Air Temp Water Temp Dewpoint Dewpoint Depression Visibility Wind Speed Wind Dir Waves Ship Positions

Platitera Tonouranon

Last reported at 2014-Aug-28 13:15 UTC. Time now 2014-Aug-28 15:26 UTC.
Position N 37°45' E 023°26'.

Length 55 m; draft 3.8 m.

Type: Ship (hazmat cat A). MMSI: 237038200.

Date/timePositionNaut miles runAvg speedWind from/ knotsBaromVisibWave heightAir tempDewpointWater temp
2014-Aug-28 13:15N 37°45' E 023°26'710.0
2014-Aug-28 12:30N 37°37' E 023°26'16 5.3
2014-Aug-28 09:31N 37°21' E 023°28'9 4.0
2014-Aug-28 07:17N 37°29' E 023°33'912.3
2014-Aug-28 06:33N 37°38' E 023°35'1212.0
2014-Aug-28 05:33N 37°50' E 023°39'5 0.4
2014-Aug-27 16:33N 37°55' E 023°40'1212.0
2014-Aug-27 15:33N 37°47' E 023°28'3 2.9
2014-Aug-27 14:24N 37°45' E 023°26'0 0.0
2014-Aug-27 13:16N 37°45' E 023°26'7 8.9
2014-Aug-27 12:30N 37°38' E 023°26'11 5.8
2014-Aug-27 10:32N 37°27' E 023°31'13 3.2
2014-Aug-27 06:32N 37°39' E 023°36'1211.9
2014-Aug-27 05:33N 37°51' E 023°39'6 5.6
2014-Aug-27 04:33N 37°56' E 023°41'3 0.3
2014-Aug-26 16:33N 37°54' E 023°39'1211.6
2014-Aug-26 15:33N 37°47' E 023°27'2 2.0
2014-Aug-26 14:25N 37°45' E 023°26'0 0.0
2014-Aug-26 13:31N 37°45' E 023°26'8 7.2
2014-Aug-26 12:27N 37°37' E 023°26'9 1.5
2014-Aug-26 06:33N 37°40' E 023°37'1211.9
2014-Aug-26 05:33N 37°51' E 023°39'5 5.0
2014-Aug-26 04:33N 37°56' E 023°41'2 0.2
2014-Aug-25 16:33N 37°54' E 023°39'1211.9
2014-Aug-25 15:33N 37°47' E 023°28'3 1.2
2014-Aug-25 13:14N 37°45' E 023°26'12 2.1
2014-Aug-25 07:21N 37°34' E 023°31'1012.0
2014-Aug-25 06:33N 37°43' E 023°32'1211.6
2014-Aug-25 05:33N 37°53' E 023°40'2 0.2
2014-Aug-24 16:33N 37°55' E 023°38'1212.0
2014-Aug-24 15:33N 37°47' E 023°27'2 2.0
2014-Aug-24 14:28N 37°45' E 023°26'0 0.0
2014-Aug-24 13:32N 37°45' E 023°26'9 7.7
2014-Aug-24 12:23N 37°36' E 023°26'11 5.7
2014-Aug-24 10:23N 37°25' E 023°32'3 1.0
2014-Aug-24 07:33N 37°28' E 023°32'1312.1
2014-Aug-24 06:31N 37°41' E 023°34'1111.9
2014-Aug-24 05:33N 37°52' E 023°37'6 5.6
2014-Aug-24 04:33N 37°56' E 023°41'3 0.1
2014-Aug-22 16:33N 37°54' E 023°39'1211.6
2014-Aug-22 15:33N 37°47' E 023°27'2 1.8
2014-Aug-22 14:17N 37°45' E 023°26'0 0.0
2014-Aug-22 13:21N 37°45' E 023°26'7 8.5
2014-Aug-22 12:33N 37°38' E 023°26'12 6.1
2014-Aug-22 10:33N 37°27' E 023°32'2 0.7
2014-Aug-22 07:33N 37°29' E 023°32'1311.9
2014-Aug-22 06:30N 37°41' E 023°34'1111.5
2014-Aug-22 05:33N 37°51' E 023°39'5 5.0
2014-Aug-22 04:33N 37°56' E 023°41'3 0.2
2014-Aug-21 16:33N 37°54' E 023°39'1211.7
2014-Aug-21 15:33N 37°47' E 023°27'2 2.3
2014-Aug-21 14:30N 37°45' E 023°26'0 0.0
2014-Aug-21 13:33N 37°45' E 023°26'7 6.4
2014-Aug-21 12:32N 37°38' E 023°26'11 5.3
2014-Aug-21 10:33N 37°28' E 023°31'7 7.3
2014-Aug-21 09:32N 37°21' E 023°28'22 6.9
2014-Aug-21 06:20N 37°42' E 023°35'911.8
2014-Aug-21 05:33N 37°51' E 023°37'6 5.7
2014-Aug-21 04:33N 37°56' E 023°41'0 0.0
2014-Aug-20 17:05N 37°56' E 023°41'4 7.0
2014-Aug-20 16:33N 37°53' E 023°38'1211.6
2014-Aug-20 15:33N 37°47' E 023°26'2 0.8
2014-Aug-20 13:12N 37°45' E 023°25'7 9.8
2014-Aug-20 12:32N 37°38' E 023°26'13 6.2
2014-Aug-20 10:24N 37°26' E 023°32'16 4.0
2014-Aug-20 06:28N 37°41' E 023°35'1111.7
2014-Aug-20 05:33N 37°52' E 023°37'1 0.1
2014-Aug-19 16:33N 37°53' E 023°37'9 0.8
2014-Aug-19 06:26N 37°44' E 023°36'1011.7
2014-Aug-19 05:33N 37°54' E 023°40'2 2.0
2014-Aug-19 04:33N 37°56' E 023°41'0 0.0
2014-Aug-18 17:03N 37°56' E 023°41'3 6.0
2014-Aug-18 16:33N 37°55' E 023°38'1211.8
2014-Aug-18 15:33N 37°47' E 023°27'2 1.7
2014-Aug-18 14:08N 37°45' E 023°26'0 0.0
2014-Aug-18 13:28N 37°45' E 023°26'  

Dump ship's entire track history